sensor_id;sensor_type;location;lat;lon;timestamp;P1;durP1;ratioP1;P2;durP2;ratioP2
7933;SDS011;4012;48.896;9.192;2023-06-22T00:00:55;5.30;;;4.80;;
7933;SDS011;4012;48.896;9.192;2023-06-22T00:03:22;5.87;;;5.30;;
7933;SDS011;4012;48.896;9.192;2023-06-22T00:05:52;5.33;;;4.73;;
7933;SDS011;4012;48.896;9.192;2023-06-22T00:08:18;7.43;;;5.23;;
7933;SDS011;4012;48.896;9.192;2023-06-22T00:10:48;6.07;;;5.47;;
7933;SDS011;4012;48.896;9.192;2023-06-22T00:13:17;5.87;;;5.23;;
7933;SDS011;4012;48.896;9.192;2023-06-22T00:15:42;5.63;;;5.13;;
7933;SDS011;4012;48.896;9.192;2023-06-22T00:18:09;7.40;;;5.00;;
7933;SDS011;4012;48.896;9.192;2023-06-22T00:20:38;5.67;;;5.17;;
7933;SDS011;4012;48.896;9.192;2023-06-22T00:23:07;5.23;;;4.73;;
7933;SDS011;4012;48.896;9.192;2023-06-22T00:25:39;5.43;;;4.93;;
7933;SDS011;4012;48.896;9.192;2023-06-22T00:28:08;6.90;;;5.50;;
7933;SDS011;4012;48.896;9.192;2023-06-22T00:30:34;5.43;;;4.83;;
7933;SDS011;4012;48.896;9.192;2023-06-22T00:33:00;7.00;;;5.47;;
7933;SDS011;4012;48.896;9.192;2023-06-22T00:35:26;6.77;;;5.50;;
7933;SDS011;4012;48.896;9.192;2023-06-22T00:37:54;8.03;;;5.40;;
7933;SDS011;4012;48.896;9.192;2023-06-22T00:40:29;6.83;;;5.43;;
7933;SDS011;4012;48.896;9.192;2023-06-22T00:42:55;7.47;;;5.23;;
7933;SDS011;4012;48.896;9.192;2023-06-22T00:45:24;6.20;;;5.00;;
7933;SDS011;4012;48.896;9.192;2023-06-22T00:47:54;6.93;;;5.37;;
7933;SDS011;4012;48.896;9.192;2023-06-22T00:50:22;7.57;;;5.40;;
7933;SDS011;4012;48.896;9.192;2023-06-22T00:52:52;6.10;;;5.50;;
7933;SDS011;4012;48.896;9.192;2023-06-22T00:55:23;5.70;;;5.20;;
7933;SDS011;4012;48.896;9.192;2023-06-22T00:57:51;6.33;;;5.67;;
7933;SDS011;4012;48.896;9.192;2023-06-22T01:00:21;8.23;;;5.57;;
7933;SDS011;4012;48.896;9.192;2023-06-22T01:02:50;5.80;;;5.03;;
7933;SDS011;4012;48.896;9.192;2023-06-22T01:05:25;6.43;;;5.37;;
7933;SDS011;4012;48.896;9.192;2023-06-22T01:07:58;6.00;;;5.00;;
7933;SDS011;4012;48.896;9.192;2023-06-22T01:10:45;6.50;;;4.90;;
7933;SDS011;4012;48.896;9.192;2023-06-22T01:13:32;6.37;;;5.53;;
7933;SDS011;4012;48.896;9.192;2023-06-22T01:16:23;7.27;;;5.90;;
7933;SDS011;4012;48.896;9.192;2023-06-22T01:18:52;6.97;;;5.60;;
7933;SDS011;4012;48.896;9.192;2023-06-22T01:21:21;5.93;;;5.33;;
7933;SDS011;4012;48.896;9.192;2023-06-22T01:26:41;9.27;;;6.63;;
7933;SDS011;4012;48.896;9.192;2023-06-22T01:29:13;5.93;;;5.33;;
7933;SDS011;4012;48.896;9.192;2023-06-22T01:31:41;6.50;;;5.67;;
7933;SDS011;4012;48.896;9.192;2023-06-22T01:34:09;5.77;;;5.20;;
7933;SDS011;4012;48.896;9.192;2023-06-22T01:36:37;7.30;;;5.67;;
7933;SDS011;4012;48.896;9.192;2023-06-22T01:39:04;6.57;;;5.07;;
7933;SDS011;4012;48.896;9.192;2023-06-22T01:41:35;7.00;;;6.23;;
7933;SDS011;4012;48.896;9.192;2023-06-22T01:44:03;6.33;;;5.27;;
7933;SDS011;4012;48.896;9.192;2023-06-22T01:46:32;6.77;;;5.17;;
7933;SDS011;4012;48.896;9.192;2023-06-22T01:48:59;6.07;;;5.20;;
7933;SDS011;4012;48.896;9.192;2023-06-22T01:51:26;7.20;;;5.90;;
7933;SDS011;4012;48.896;9.192;2023-06-22T01:53:51;5.60;;;5.00;;
7933;SDS011;4012;48.896;9.192;2023-06-22T01:56:17;8.07;;;6.10;;
7933;SDS011;4012;48.896;9.192;2023-06-22T01:58:47;6.97;;;6.27;;
7933;SDS011;4012;48.896;9.192;2023-06-22T02:01:24;8.00;;;5.77;;
7933;SDS011;4012;48.896;9.192;2023-06-22T02:03:59;10.80;;;5.70;;
7933;SDS011;4012;48.896;9.192;2023-06-22T02:06:49;8.80;;;6.00;;
7933;SDS011;4012;48.896;9.192;2023-06-22T02:09:19;6.67;;;5.70;;
7933;SDS011;4012;48.896;9.192;2023-06-22T02:11:47;7.03;;;6.33;;
7933;SDS011;4012;48.896;9.192;2023-06-22T02:14:16;7.43;;;5.80;;
7933;SDS011;4012;48.896;9.192;2023-06-22T02:16:43;8.47;;;5.53;;
7933;SDS011;4012;48.896;9.192;2023-06-22T02:19:12;7.30;;;5.67;;
7933;SDS011;4012;48.896;9.192;2023-06-22T02:21:40;6.67;;;5.97;;
7933;SDS011;4012;48.896;9.192;2023-06-22T02:24:06;7.13;;;5.47;;
7933;SDS011;4012;48.896;9.192;2023-06-22T02:26:32;6.13;;;5.53;;
7933;SDS011;4012;48.896;9.192;2023-06-22T02:28:57;7.17;;;5.30;;
7933;SDS011;4012;48.896;9.192;2023-06-22T02:31:23;9.47;;;5.87;;
7933;SDS011;4012;48.896;9.192;2023-06-22T02:33:55;6.57;;;5.87;;
7933;SDS011;4012;48.896;9.192;2023-06-22T02:36:23;7.47;;;6.27;;
7933;SDS011;4012;48.896;9.192;2023-06-22T02:38:50;6.77;;;5.73;;
7933;SDS011;4012;48.896;9.192;2023-06-22T02:41:15;8.10;;;6.10;;
7933;SDS011;4012;48.896;9.192;2023-06-22T02:43:44;6.37;;;5.60;;
7933;SDS011;4012;48.896;9.192;2023-06-22T02:46:11;10.13;;;6.37;;
7933;SDS011;4012;48.896;9.192;2023-06-22T02:48:38;7.13;;;5.80;;
7933;SDS011;4012;48.896;9.192;2023-06-22T02:51:04;6.67;;;5.73;;
7933;SDS011;4012;48.896;9.192;2023-06-22T02:53:29;6.67;;;5.23;;
7933;SDS011;4012;48.896;9.192;2023-06-22T02:55:55;9.27;;;5.50;;
7933;SDS011;4012;48.896;9.192;2023-06-22T02:58:21;8.97;;;6.07;;
7933;SDS011;4012;48.896;9.192;2023-06-22T03:00:47;6.57;;;5.90;;
7933;SDS011;4012;48.896;9.192;2023-06-22T03:03:12;8.07;;;5.90;;
7933;SDS011;4012;48.896;9.192;2023-06-22T03:05:38;6.20;;;5.60;;
7933;SDS011;4012;48.896;9.192;2023-06-22T03:08:05;6.97;;;5.87;;
7933;SDS011;4012;48.896;9.192;2023-06-22T03:10:30;7.43;;;5.83;;
7933;SDS011;4012;48.896;9.192;2023-06-22T03:12:56;7.67;;;5.67;;
7933;SDS011;4012;48.896;9.192;2023-06-22T03:15:21;7.13;;;5.90;;
7933;SDS011;4012;48.896;9.192;2023-06-22T03:17:47;6.03;;;5.30;;
7933;SDS011;4012;48.896;9.192;2023-06-22T03:20:13;6.87;;;6.17;;
7933;SDS011;4012;48.896;9.192;2023-06-22T03:22:39;6.63;;;5.93;;
7933;SDS011;4012;48.896;9.192;2023-06-22T03:25:05;6.80;;;6.10;;
7933;SDS011;4012;48.896;9.192;2023-06-22T03:27:37;7.53;;;5.93;;
7933;SDS011;4012;48.896;9.192;2023-06-22T03:30:05;6.73;;;5.57;;
7933;SDS011;4012;48.896;9.192;2023-06-22T03:32:32;7.23;;;6.03;;
7933;SDS011;4012;48.896;9.192;2023-06-22T03:34:58;8.30;;;5.83;;
7933;SDS011;4012;48.896;9.192;2023-06-22T03:37:27;8.03;;;5.80;;
7933;SDS011;4012;48.896;9.192;2023-06-22T03:39:53;7.73;;;6.13;;
7933;SDS011;4012;48.896;9.192;2023-06-22T03:42:19;9.87;;;5.67;;
7933;SDS011;4012;48.896;9.192;2023-06-22T03:44:44;9.10;;;5.90;;
7933;SDS011;4012;48.896;9.192;2023-06-22T03:47:10;6.70;;;5.93;;
7933;SDS011;4012;48.896;9.192;2023-06-22T03:49:36;6.80;;;6.10;;
7933;SDS011;4012;48.896;9.192;2023-06-22T03:52:01;7.83;;;6.63;;
7933;SDS011;4012;48.896;9.192;2023-06-22T03:54:28;8.87;;;6.83;;
7933;SDS011;4012;48.896;9.192;2023-06-22T03:56:54;6.83;;;6.07;;
7933;SDS011;4012;48.896;9.192;2023-06-22T03:59:21;9.93;;;5.80;;
7933;SDS011;4012;48.896;9.192;2023-06-22T04:01:47;6.83;;;5.80;;
7933;SDS011;4012;48.896;9.192;2023-06-22T04:04:12;6.60;;;5.60;;
7933;SDS011;4012;48.896;9.192;2023-06-22T04:06:38;10.37;;;6.73;;
7933;SDS011;4012;48.896;9.192;2023-06-22T04:09:05;7.77;;;5.70;;
7933;SDS011;4012;48.896;9.192;2023-06-22T04:11:31;8.60;;;6.40;;
7933;SDS011;4012;48.896;9.192;2023-06-22T04:13:57;7.53;;;6.33;;
7933;SDS011;4012;48.896;9.192;2023-06-22T04:16:23;9.70;;;5.90;;
7933;SDS011;4012;48.896;9.192;2023-06-22T04:18:48;8.97;;;6.10;;
7933;SDS011;4012;48.896;9.192;2023-06-22T04:21:14;8.40;;;5.70;;
7933;SDS011;4012;48.896;9.192;2023-06-22T04:23:39;6.77;;;6.13;;
7933;SDS011;4012;48.896;9.192;2023-06-22T04:26:05;7.40;;;6.00;;
7933;SDS011;4012;48.896;9.192;2023-06-22T04:28:30;6.30;;;5.70;;
7933;SDS011;4012;48.896;9.192;2023-06-22T04:31:00;7.67;;;6.83;;
7933;SDS011;4012;48.896;9.192;2023-06-22T04:33:27;8.93;;;6.77;;
7933;SDS011;4012;48.896;9.192;2023-06-22T04:35:55;7.03;;;6.33;;
7933;SDS011;4012;48.896;9.192;2023-06-22T04:38:22;8.17;;;6.37;;
7933;SDS011;4012;48.896;9.192;2023-06-22T04:40:48;8.63;;;5.70;;
7933;SDS011;4012;48.896;9.192;2023-06-22T04:43:14;9.50;;;6.83;;
7933;SDS011;4012;48.896;9.192;2023-06-22T04:45:40;9.17;;;6.57;;
7933;SDS011;4012;48.896;9.192;2023-06-22T04:48:06;7.43;;;6.10;;
7933;SDS011;4012;48.896;9.192;2023-06-22T04:50:33;10.57;;;7.03;;
7933;SDS011;4012;48.896;9.192;2023-06-22T04:52:59;8.37;;;6.17;;
7933;SDS011;4012;48.896;9.192;2023-06-22T04:55:24;7.57;;;6.77;;
7933;SDS011;4012;48.896;9.192;2023-06-22T04:57:50;7.43;;;6.40;;
7933;SDS011;4012;48.896;9.192;2023-06-22T05:00:19;7.67;;;6.90;;
7933;SDS011;4012;48.896;9.192;2023-06-22T05:02:47;6.87;;;6.17;;
7933;SDS011;4012;48.896;9.192;2023-06-22T05:05:13;9.60;;;7.03;;
7933;SDS011;4012;48.896;9.192;2023-06-22T05:07:41;11.10;;;7.00;;
7933;SDS011;4012;48.896;9.192;2023-06-22T05:10:08;8.63;;;6.57;;
7933;SDS011;4012;48.896;9.192;2023-06-22T05:12:36;6.37;;;5.77;;
7933;SDS011;4012;48.896;9.192;2023-06-22T05:15:02;7.97;;;6.40;;
7933;SDS011;4012;48.896;9.192;2023-06-22T05:17:28;8.43;;;6.77;;
7933;SDS011;4012;48.896;9.192;2023-06-22T05:19:53;7.80;;;6.60;;
7933;SDS011;4012;48.896;9.192;2023-06-22T05:22:20;9.17;;;6.83;;
7933;SDS011;4012;48.896;9.192;2023-06-22T05:24:45;9.43;;;6.47;;
7933;SDS011;4012;48.896;9.192;2023-06-22T05:27:11;8.10;;;6.23;;
7933;SDS011;4012;48.896;9.192;2023-06-22T05:29:38;9.00;;;7.93;;
7933;SDS011;4012;48.896;9.192;2023-06-22T05:32:04;10.37;;;6.67;;
7933;SDS011;4012;48.896;9.192;2023-06-22T05:34:30;8.33;;;6.93;;
7933;SDS011;4012;48.896;9.192;2023-06-22T05:36:56;9.13;;;6.63;;
7933;SDS011;4012;48.896;9.192;2023-06-22T05:39:23;8.07;;;6.70;;
7933;SDS011;4012;48.896;9.192;2023-06-22T05:41:49;8.27;;;7.33;;
7933;SDS011;4012;48.896;9.192;2023-06-22T05:44:15;7.33;;;6.63;;
7933;SDS011;4012;48.896;9.192;2023-06-22T05:46:41;9.60;;;6.60;;
7933;SDS011;4012;48.896;9.192;2023-06-22T05:49:12;8.93;;;6.53;;
7933;SDS011;4012;48.896;9.192;2023-06-22T05:51:38;7.97;;;6.00;;
7933;SDS011;4012;48.896;9.192;2023-06-22T05:54:04;9.50;;;6.80;;
7933;SDS011;4012;48.896;9.192;2023-06-22T05:56:29;9.70;;;6.53;;
7933;SDS011;4012;48.896;9.192;2023-06-22T05:58:55;8.70;;;6.87;;
7933;SDS011;4012;48.896;9.192;2023-06-22T06:01:21;10.80;;;6.53;;
7933;SDS011;4012;48.896;9.192;2023-06-22T06:03:47;10.70;;;7.10;;
7933;SDS011;4012;48.896;9.192;2023-06-22T06:06:14;9.17;;;6.50;;
7933;SDS011;4012;48.896;9.192;2023-06-22T06:08:40;9.50;;;5.70;;
7933;SDS011;4012;48.896;9.192;2023-06-22T06:11:06;8.77;;;6.07;;
7933;SDS011;4012;48.896;9.192;2023-06-22T06:13:31;8.40;;;5.57;;
7933;SDS011;4012;48.896;9.192;2023-06-22T06:15:57;9.23;;;5.63;;
7933;SDS011;4012;48.896;9.192;2023-06-22T06:18:24;7.97;;;5.47;;
7933;SDS011;4012;48.896;9.192;2023-06-22T06:20:49;7.93;;;6.20;;
7933;SDS011;4012;48.896;9.192;2023-06-22T06:23:15;6.90;;;5.43;;
7933;SDS011;4012;48.896;9.192;2023-06-22T06:25:41;7.23;;;5.33;;
7933;SDS011;4012;48.896;9.192;2023-06-22T06:28:06;5.97;;;5.37;;
7933;SDS011;4012;48.896;9.192;2023-06-22T06:30:32;7.80;;;6.10;;
7933;SDS011;4012;48.896;9.192;2023-06-22T06:32:57;6.83;;;5.90;;
7933;SDS011;4012;48.896;9.192;2023-06-22T06:35:23;5.93;;;5.33;;
7933;SDS011;4012;48.896;9.192;2023-06-22T06:37:49;7.97;;;5.27;;
7933;SDS011;4012;48.896;9.192;2023-06-22T06:40:16;6.10;;;5.17;;
7933;SDS011;4012;48.896;9.192;2023-06-22T06:42:43;5.33;;;4.73;;
7933;SDS011;4012;48.896;9.192;2023-06-22T06:45:20;5.70;;;4.97;;
7933;SDS011;4012;48.896;9.192;2023-06-22T06:47:50;6.60;;;4.70;;
7933;SDS011;4012;48.896;9.192;2023-06-22T06:50:17;5.27;;;4.77;;
7933;SDS011;4012;48.896;9.192;2023-06-22T06:52:43;6.23;;;4.70;;
7933;SDS011;4012;48.896;9.192;2023-06-22T06:55:09;5.43;;;3.60;;
7933;SDS011;4012;48.896;9.192;2023-06-22T06:57:37;6.07;;;4.35;;
7933;SDS011;4012;48.896;9.192;2023-06-22T07:00:07;7.20;;;4.40;;
7933;SDS011;4012;48.896;9.192;2023-06-22T07:02:37;4.80;;;4.28;;
7933;SDS011;4012;48.896;9.192;2023-06-22T07:05:04;5.00;;;4.28;;
7933;SDS011;4012;48.896;9.192;2023-06-22T07:07:31;6.65;;;4.70;;
7933;SDS011;4012;48.896;9.192;2023-06-22T07:09:56;5.47;;;4.38;;
7933;SDS011;4012;48.896;9.192;2023-06-22T07:12:22;5.80;;;4.43;;
7933;SDS011;4012;48.896;9.192;2023-06-22T07:14:48;5.75;;;4.07;;
7933;SDS011;4012;48.896;9.192;2023-06-22T07:17:15;4.78;;;4.28;;
7933;SDS011;4012;48.896;9.192;2023-06-22T07:19:40;4.88;;;4.28;;
7933;SDS011;4012;48.896;9.192;2023-06-22T07:22:07;7.28;;;4.57;;
7933;SDS011;4012;48.896;9.192;2023-06-22T07:24:32;5.60;;;4.43;;
7933;SDS011;4012;48.896;9.192;2023-06-22T07:26:58;4.50;;;4.00;;
7933;SDS011;4012;48.896;9.192;2023-06-22T07:29:25;6.82;;;4.80;;
7933;SDS011;4012;48.896;9.192;2023-06-22T07:31:52;5.90;;;4.57;;
7933;SDS011;4012;48.896;9.192;2023-06-22T07:34:17;5.93;;;4.05;;
7933;SDS011;4012;48.896;9.192;2023-06-22T07:36:44;5.63;;;4.43;;
7933;SDS011;4012;48.896;9.192;2023-06-22T07:39:10;5.18;;;4.28;;
7933;SDS011;4012;48.896;9.192;2023-06-22T07:41:37;6.22;;;3.53;;
7933;SDS011;4012;48.896;9.192;2023-06-22T07:44:03;8.52;;;4.30;;
7933;SDS011;4012;48.896;9.192;2023-06-22T07:46:29;7.03;;;3.90;;
7933;SDS011;4012;48.896;9.192;2023-06-22T07:48:55;4.10;;;3.70;;
7933;SDS011;4012;48.896;9.192;2023-06-22T07:51:21;5.43;;;3.75;;
7933;SDS011;4012;48.896;9.192;2023-06-22T07:53:47;5.00;;;3.95;;
7933;SDS011;4012;48.896;9.192;2023-06-22T07:56:13;4.15;;;3.53;;
7933;SDS011;4012;48.896;9.192;2023-06-22T07:58:43;6.23;;;4.30;;
7933;SDS011;4012;48.896;9.192;2023-06-22T08:01:10;4.82;;;3.88;;
7933;SDS011;4012;48.896;9.192;2023-06-22T08:03:36;6.95;;;4.28;;
7933;SDS011;4012;48.896;9.192;2023-06-22T08:06:02;5.10;;;3.88;;
7933;SDS011;4012;48.896;9.192;2023-06-22T08:08:27;4.75;;;3.75;;
7933;SDS011;4012;48.896;9.192;2023-06-22T08:10:53;6.88;;;3.88;;
7933;SDS011;4012;48.896;9.192;2023-06-22T08:13:18;4.85;;;3.85;;
7933;SDS011;4012;48.896;9.192;2023-06-22T08:15:44;6.30;;;3.78;;
7933;SDS011;4012;48.896;9.192;2023-06-22T08:18:10;6.20;;;4.13;;
7933;SDS011;4012;48.896;9.192;2023-06-22T08:20:35;4.78;;;3.90;;
7933;SDS011;4012;48.896;9.192;2023-06-22T08:23:01;4.93;;;4.03;;
7933;SDS011;4012;48.896;9.192;2023-06-22T08:25:31;6.35;;;3.38;;
7933;SDS011;4012;48.896;9.192;2023-06-22T08:27:57;8.27;;;3.60;;
7933;SDS011;4012;48.896;9.192;2023-06-22T08:30:23;5.45;;;3.85;;
7933;SDS011;4012;48.896;9.192;2023-06-22T08:32:49;4.53;;;3.55;;
7933;SDS011;4012;48.896;9.192;2023-06-22T08:35:17;6.22;;;3.55;;
7933;SDS011;4012;48.896;9.192;2023-06-22T08:37:43;5.72;;;3.70;;
7933;SDS011;4012;48.896;9.192;2023-06-22T08:40:10;7.55;;;3.92;;
7933;SDS011;4012;48.896;9.192;2023-06-22T08:42:36;4.88;;;3.50;;
7933;SDS011;4012;48.896;9.192;2023-06-22T08:45:03;6.15;;;4.45;;
7933;SDS011;4012;48.896;9.192;2023-06-22T08:47:29;7.63;;;4.15;;
7933;SDS011;4012;48.896;9.192;2023-06-22T08:49:54;6.83;;;3.40;;
7933;SDS011;4012;48.896;9.192;2023-06-22T08:52:20;7.97;;;4.10;;
7933;SDS011;4012;48.896;9.192;2023-06-22T08:54:46;7.73;;;4.20;;
7933;SDS011;4012;48.896;9.192;2023-06-22T08:57:12;7.33;;;3.77;;
7933;SDS011;4012;48.896;9.192;2023-06-22T08:59:38;6.50;;;3.80;;
7933;SDS011;4012;48.896;9.192;2023-06-22T09:02:04;10.20;;;4.37;;
7933;SDS011;4012;48.896;9.192;2023-06-22T09:04:30;4.93;;;3.47;;
7933;SDS011;4012;48.896;9.192;2023-06-22T09:06:59;7.53;;;3.47;;
7933;SDS011;4012;48.896;9.192;2023-06-22T09:09:25;5.37;;;3.60;;
7933;SDS011;4012;48.896;9.192;2023-06-22T09:11:51;6.80;;;3.95;;
7933;SDS011;4012;48.896;9.192;2023-06-22T09:14:17;5.97;;;3.72;;
7933;SDS011;4012;48.896;9.192;2023-06-22T09:16:42;5.13;;;3.90;;
7933;SDS011;4012;48.896;9.192;2023-06-22T09:19:08;4.63;;;3.45;;
7933;SDS011;4012;48.896;9.192;2023-06-22T09:21:34;4.18;;;3.78;;
7933;SDS011;4012;48.896;9.192;2023-06-22T09:23:59;4.80;;;3.50;;
7933;SDS011;4012;48.896;9.192;2023-06-22T09:26:25;8.10;;;4.13;;
7933;SDS011;4012;48.896;9.192;2023-06-22T09:28:50;6.32;;;3.95;;
7933;SDS011;4012;48.896;9.192;2023-06-22T09:31:16;6.60;;;3.78;;
7933;SDS011;4012;48.896;9.192;2023-06-22T09:33:42;5.28;;;4.07;;
7933;SDS011;4012;48.896;9.192;2023-06-22T09:36:08;4.60;;;4.03;;
7933;SDS011;4012;48.896;9.192;2023-06-22T09:38:37;5.95;;;4.07;;
7933;SDS011;4012;48.896;9.192;2023-06-22T09:41:03;7.03;;;3.80;;
7933;SDS011;4012;48.896;9.192;2023-06-22T09:43:29;5.25;;;3.75;;
7933;SDS011;4012;48.896;9.192;2023-06-22T09:45:56;4.18;;;3.78;;
7933;SDS011;4012;48.896;9.192;2023-06-22T09:48:21;8.90;;;4.30;;
7933;SDS011;4012;48.896;9.192;2023-06-22T09:50:47;5.72;;;3.67;;
7933;SDS011;4012;48.896;9.192;2023-06-22T09:53:13;6.53;;;3.78;;
7933;SDS011;4012;48.896;9.192;2023-06-22T09:55:38;7.32;;;4.40;;
7933;SDS011;4012;48.896;9.192;2023-06-22T09:58:04;7.05;;;3.75;;
7933;SDS011;4012;48.896;9.192;2023-06-22T10:00:30;6.53;;;4.20;;
7933;SDS011;4012;48.896;9.192;2023-06-22T10:02:55;11.20;;;5.10;;
7933;SDS011;4012;48.896;9.192;2023-06-22T10:05:21;5.63;;;3.67;;
7933;SDS011;4012;48.896;9.192;2023-06-22T10:07:47;4.85;;;3.78;;
7933;SDS011;4012;48.896;9.192;2023-06-22T10:10:13;6.70;;;4.00;;
7933;SDS011;4012;48.896;9.192;2023-06-22T10:12:43;6.80;;;4.40;;
7933;SDS011;4012;48.896;9.192;2023-06-22T10:15:19;7.03;;;4.15;;
7933;SDS011;4012;48.896;9.192;2023-06-22T10:17:46;6.78;;;3.80;;
7933;SDS011;4012;48.896;9.192;2023-06-22T10:20:12;6.70;;;4.25;;
7933;SDS011;4012;48.896;9.192;2023-06-22T10:22:38;5.87;;;3.80;;
7933;SDS011;4012;48.896;9.192;2023-06-22T10:25:09;4.97;;;3.83;;
7933;SDS011;4012;48.896;9.192;2023-06-22T10:27:35;7.33;;;4.20;;
7933;SDS011;4012;48.896;9.192;2023-06-22T10:30:01;5.20;;;4.00;;
7933;SDS011;4012;48.896;9.192;2023-06-22T10:32:27;5.63;;;3.67;;
7933;SDS011;4012;48.896;9.192;2023-06-22T10:34:55;6.37;;;3.97;;
7933;SDS011;4012;48.896;9.192;2023-06-22T10:37:21;16.20;;;9.47;;
7933;SDS011;4012;48.896;9.192;2023-06-22T10:39:47;4.23;;;3.50;;
7933;SDS011;4012;48.896;9.192;2023-06-22T10:42:12;7.73;;;4.13;;
7933;SDS011;4012;48.896;9.192;2023-06-22T10:44:38;6.53;;;4.43;;
7933;SDS011;4012;48.896;9.192;2023-06-22T10:47:06;9.23;;;4.73;;
7933;SDS011;4012;48.896;9.192;2023-06-22T10:49:32;7.23;;;3.90;;
7933;SDS011;4012;48.896;9.192;2023-06-22T10:51:57;5.80;;;4.10;;
7933;SDS011;4012;48.896;9.192;2023-06-22T10:54:23;5.97;;;3.83;;
7933;SDS011;4012;48.896;9.192;2023-06-22T10:56:48;5.07;;;3.40;;
7933;SDS011;4012;48.896;9.192;2023-06-22T10:59:14;7.87;;;4.63;;
7933;SDS011;4012;48.896;9.192;2023-06-22T11:01:41;6.90;;;3.90;;
7933;SDS011;4012;48.896;9.192;2023-06-22T11:04:06;7.33;;;4.50;;
7933;SDS011;4012;48.896;9.192;2023-06-22T11:06:32;4.80;;;3.87;;
7933;SDS011;4012;48.896;9.192;2023-06-22T11:08:58;6.80;;;3.73;;
7933;SDS011;4012;48.896;9.192;2023-06-22T11:11:23;7.07;;;3.80;;
7933;SDS011;4012;48.896;9.192;2023-06-22T11:13:50;7.77;;;3.50;;
7933;SDS011;4012;48.896;9.192;2023-06-22T11:16:15;4.23;;;3.30;;
7933;SDS011;4012;48.896;9.192;2023-06-22T11:18:41;8.53;;;4.10;;
7933;SDS011;4012;48.896;9.192;2023-06-22T11:21:07;7.07;;;3.80;;
7933;SDS011;4012;48.896;9.192;2023-06-22T11:23:32;5.53;;;4.17;;
7933;SDS011;4012;48.896;9.192;2023-06-22T11:25:58;7.00;;;3.90;;
7933;SDS011;4012;48.896;9.192;2023-06-22T11:28:23;8.63;;;3.73;;
7933;SDS011;4012;48.896;9.192;2023-06-22T11:30:49;8.67;;;4.07;;
7933;SDS011;4012;48.896;9.192;2023-06-22T11:33:14;10.60;;;4.00;;
7933;SDS011;4012;48.896;9.192;2023-06-22T11:35:40;7.00;;;3.87;;
7933;SDS011;4012;48.896;9.192;2023-06-22T11:38:06;7.03;;;4.07;;
7933;SDS011;4012;48.896;9.192;2023-06-22T11:40:32;9.97;;;4.03;;
7933;SDS011;4012;48.896;9.192;2023-06-22T11:42:58;4.80;;;3.80;;
7933;SDS011;4012;48.896;9.192;2023-06-22T11:45:23;7.50;;;4.30;;
7933;SDS011;4012;48.896;9.192;2023-06-22T11:47:49;6.87;;;3.60;;
7933;SDS011;4012;48.896;9.192;2023-06-22T11:50:15;9.50;;;4.50;;
7933;SDS011;4012;48.896;9.192;2023-06-22T11:52:40;10.23;;;4.30;;
7933;SDS011;4012;48.896;9.192;2023-06-22T11:55:06;8.30;;;3.93;;
7933;SDS011;4012;48.896;9.192;2023-06-22T11:57:35;8.00;;;3.63;;
7933;SDS011;4012;48.896;9.192;2023-06-22T12:00:02;5.97;;;3.87;;
7933;SDS011;4012;48.896;9.192;2023-06-22T12:02:40;8.90;;;4.13;;
7933;SDS011;4012;48.896;9.192;2023-06-22T12:05:06;6.33;;;3.47;;
7933;SDS011;4012;48.896;9.192;2023-06-22T12:07:33;5.60;;;4.20;;
7933;SDS011;4012;48.896;9.192;2023-06-22T12:09:58;8.33;;;4.57;;
7933;SDS011;4012;48.896;9.192;2023-06-22T12:12:24;6.53;;;4.10;;
7933;SDS011;4012;48.896;9.192;2023-06-22T12:14:49;6.20;;;3.73;;
7933;SDS011;4012;48.896;9.192;2023-06-22T12:17:15;10.57;;;4.03;;
7933;SDS011;4012;48.896;9.192;2023-06-22T12:19:41;6.73;;;4.20;;
7933;SDS011;4012;48.896;9.192;2023-06-22T12:22:06;7.33;;;4.40;;
7933;SDS011;4012;48.896;9.192;2023-06-22T12:24:32;7.90;;;3.83;;
7933;SDS011;4012;48.896;9.192;2023-06-22T12:26:57;7.73;;;4.07;;
7933;SDS011;4012;48.896;9.192;2023-06-22T12:29:23;4.83;;;4.00;;
7933;SDS011;4012;48.896;9.192;2023-06-22T12:31:49;8.30;;;4.00;;
7933;SDS011;4012;48.896;9.192;2023-06-22T12:34:17;8.70;;;4.83;;
7933;SDS011;4012;48.896;9.192;2023-06-22T12:36:42;8.17;;;4.43;;
7933;SDS011;4012;48.896;9.192;2023-06-22T12:39:09;13.33;;;5.43;;
7933;SDS011;4012;48.896;9.192;2023-06-22T12:41:34;7.70;;;4.33;;
7933;SDS011;4012;48.896;9.192;2023-06-22T12:44:00;6.83;;;4.13;;
7933;SDS011;4012;48.896;9.192;2023-06-22T12:46:26;10.40;;;5.60;;
7933;SDS011;4012;48.896;9.192;2023-06-22T12:48:51;9.13;;;5.17;;
7933;SDS011;4012;48.896;9.192;2023-06-22T12:51:20;9.50;;;4.97;;
7933;SDS011;4012;48.896;9.192;2023-06-22T12:53:47;9.57;;;5.10;;
7933;SDS011;4012;48.896;9.192;2023-06-22T12:56:13;9.77;;;4.47;;
7933;SDS011;4012;48.896;9.192;2023-06-22T12:58:38;8.33;;;4.33;;
7933;SDS011;4012;48.896;9.192;2023-06-22T13:01:04;8.60;;;4.10;;
7933;SDS011;4012;48.896;9.192;2023-06-22T13:03:29;12.63;;;4.77;;
7933;SDS011;4012;48.896;9.192;2023-06-22T13:05:55;12.63;;;5.90;;
7933;SDS011;4012;48.896;9.192;2023-06-22T13:08:20;10.57;;;4.70;;
7933;SDS011;4012;48.896;9.192;2023-06-22T13:10:46;14.53;;;8.33;;
7933;SDS011;4012;48.896;9.192;2023-06-22T13:13:12;12.33;;;4.33;;
7933;SDS011;4012;48.896;9.192;2023-06-22T13:15:37;6.23;;;3.93;;
7933;SDS011;4012;48.896;9.192;2023-06-22T13:18:03;9.93;;;4.70;;
7933;SDS011;4012;48.896;9.192;2023-06-22T13:20:29;12.80;;;5.37;;
7933;SDS011;4012;48.896;9.192;2023-06-22T13:22:55;8.07;;;4.50;;
7933;SDS011;4012;48.896;9.192;2023-06-22T13:25:21;7.03;;;4.37;;
7933;SDS011;4012;48.896;9.192;2023-06-22T13:27:48;7.30;;;4.40;;
7933;SDS011;4012;48.896;9.192;2023-06-22T13:30:15;11.70;;;4.93;;
7933;SDS011;4012;48.896;9.192;2023-06-22T13:32:40;7.97;;;4.47;;
7933;SDS011;4012;48.896;9.192;2023-06-22T13:35:07;12.50;;;4.43;;
7933;SDS011;4012;48.896;9.192;2023-06-22T13:37:34;12.50;;;5.07;;
7933;SDS011;4012;48.896;9.192;2023-06-22T13:40:00;18.43;;;6.23;;
7933;SDS011;4012;48.896;9.192;2023-06-22T13:42:28;8.77;;;4.60;;
7933;SDS011;4012;48.896;9.192;2023-06-22T13:44:53;10.00;;;4.63;;
7933;SDS011;4012;48.896;9.192;2023-06-22T13:47:19;7.50;;;4.57;;
7933;SDS011;4012;48.896;9.192;2023-06-22T13:49:44;8.00;;;4.23;;
7933;SDS011;4012;48.896;9.192;2023-06-22T13:52:10;9.90;;;4.30;;
7933;SDS011;4012;48.896;9.192;2023-06-22T13:54:37;11.00;;;4.33;;
7933;SDS011;4012;48.896;9.192;2023-06-22T13:57:03;8.83;;;4.47;;
7933;SDS011;4012;48.896;9.192;2023-06-22T13:59:29;10.07;;;5.00;;
7933;SDS011;4012;48.896;9.192;2023-06-22T14:01:55;7.10;;;4.10;;
7933;SDS011;4012;48.896;9.192;2023-06-22T14:04:22;11.40;;;4.20;;
7933;SDS011;4012;48.896;9.192;2023-06-22T14:06:48;13.83;;;4.30;;
7933;SDS011;4012;48.896;9.192;2023-06-22T14:09:14;7.43;;;3.97;;
7933;SDS011;4012;48.896;9.192;2023-06-22T14:11:39;7.17;;;4.03;;
7933;SDS011;4012;48.896;9.192;2023-06-22T14:14:05;9.90;;;5.00;;
7933;SDS011;4012;48.896;9.192;2023-06-22T14:16:30;7.67;;;4.10;;
7933;SDS011;4012;48.896;9.192;2023-06-22T14:18:56;8.23;;;4.60;;
7933;SDS011;4012;48.896;9.192;2023-06-22T14:21:21;6.17;;;4.17;;
7933;SDS011;4012;48.896;9.192;2023-06-22T14:23:47;7.33;;;4.60;;
7933;SDS011;4012;48.896;9.192;2023-06-22T14:26:17;9.07;;;4.80;;
7933;SDS011;4012;48.896;9.192;2023-06-22T14:28:46;9.50;;;4.53;;
7933;SDS011;4012;48.896;9.192;2023-06-22T14:31:16;10.37;;;4.57;;
7933;SDS011;4012;48.896;9.192;2023-06-22T14:33:45;8.37;;;4.43;;
7933;SDS011;4012;48.896;9.192;2023-06-22T14:36:12;9.73;;;5.40;;
7933;SDS011;4012;48.896;9.192;2023-06-22T14:38:43;8.73;;;4.07;;
7933;SDS011;4012;48.896;9.192;2023-06-22T14:41:09;8.73;;;4.57;;
7933;SDS011;4012;48.896;9.192;2023-06-22T14:43:37;8.23;;;4.83;;
7933;SDS011;4012;48.896;9.192;2023-06-22T14:46:03;13.10;;;5.93;;
7933;SDS011;4012;48.896;9.192;2023-06-22T14:48:28;12.97;;;5.90;;
7933;SDS011;4012;48.896;9.192;2023-06-22T14:50:54;7.23;;;4.17;;
7933;SDS011;4012;48.896;9.192;2023-06-22T14:53:20;8.70;;;4.17;;
7933;SDS011;4012;48.896;9.192;2023-06-22T14:55:45;6.17;;;4.30;;
7933;SDS011;4012;48.896;9.192;2023-06-22T14:58:11;10.00;;;4.43;;
7933;SDS011;4012;48.896;9.192;2023-06-22T15:00:37;7.67;;;3.27;;
7933;SDS011;4012;48.896;9.192;2023-06-22T15:03:03;8.07;;;3.47;;
7933;SDS011;4012;48.896;9.192;2023-06-22T15:05:32;8.83;;;3.37;;
7933;SDS011;4012;48.896;9.192;2023-06-22T15:07:57;8.27;;;3.77;;
7933;SDS011;4012;48.896;9.192;2023-06-22T15:10:23;6.90;;;2.87;;
7933;SDS011;4012;48.896;9.192;2023-06-22T15:12:49;7.03;;;3.07;;
7933;SDS011;4012;48.896;9.192;2023-06-22T15:15:15;7.50;;;3.30;;